Argillite, Kentucky
Current Conditions -  °F | °C
As of 10:55 PM on Thursday 27 Nov 2014 (Local Time) from KDWU Reporting Station
Overcast Overcast  
Wind Chill: 25°   Ceiling: 5000
Heat Index: 32°   Visibility: 10mi
Dew Point: 21°   Wind: 8mph
Humidity: 64%   Direction: 270°W
Pressure: 30.36"   Gusts: NA
Location:  38.51°N, 82.87°W
Report Text: KDWU 280355Z AUTO 27007KT 10SM OVC050 00/M06 A3036 RMK AO1
Loading
Personal Weather Stations






























Interactive Weather Map New forecast layout! Learn more

10-Day Weather Forecast

Advertisements
Track Severe Weather on mobile